Time;durP1;ratioP1;P1;durP2;ratioP2;P2;SDS_P1;SDS_P2;PMS_P1;PMS_P2;Temp;Humidity;BMP_temperature;BMP_pressure;BME280_temperature;BME280_humidity;BME280_pressure;Samples;Min_cycle;Max_cycle;Signal;HPM_P1;HPM_P2
2023/09/11 00:01:00;;;;;;;4.00;3.80;;;;;;;;;;5034999;28;20029;-26
2023/09/11 00:03:26;;;;;;;3.78;3.58;;;;;;;;;;5034973;28;20029;-25
2023/09/11 00:05:52;;;;;;;3.75;3.55;;;;;;;;;;5034800;28;20439;-27
2023/09/11 00:08:18;;;;;;;3.60;3.40;;;;;;;;;;5035249;28;20022;-27
2023/09/11 00:10:44;;;;;;;3.53;3.33;;;;;;;;;;5035147;28;20033;-28
2023/09/11 00:13:11;;;;;;;3.63;3.42;;;;;;;;;;5035056;28;20029;-31
2023/09/11 00:15:37;;;;;;;3.67;3.47;;;;;;;;;;5034856;28;20037;-26
2023/09/11 00:18:03;;;;;;;3.50;3.30;;;;;;;;;;5034810;28;20036;-29
2023/09/11 00:20:29;;;;;;;3.65;3.45;;;;;;;;;;5034731;28;20170;-28
2023/09/11 00:22:55;;;;;;;3.63;3.42;;;;;;;;;;5034946;28;20103;-28
2023/09/11 00:25:22;;;;;;;3.40;3.20;;;;;;;;;;5034998;28;20024;-27
2023/09/11 00:27:48;;;;;;;3.85;3.65;;;;;;;;;;5034619;28;20083;-27
2023/09/11 00:30:14;;;;;;;3.50;3.30;;;;;;;;;;5034862;28;20075;-29
2023/09/11 00:32:40;;;;;;;3.53;3.33;;;;;;;;;;5035360;28;20035;-28
2023/09/11 00:35:06;;;;;;;3.53;3.33;;;;;;;;;;5034854;28;20369;-28
2023/09/11 00:37:32;;;;;;;4.07;3.88;;;;;;;;;;5034843;28;20397;-27
2023/09/11 00:39:59;;;;;;;3.97;3.67;;;;;;;;;;5034839;28;20176;-28
2023/09/11 00:42:25;;;;;;;3.40;3.20;;;;;;;;;;5034744;28;20036;-26
2023/09/11 00:44:51;;;;;;;4.80;4.55;;;;;;;;;;5034715;28;20392;-25
2023/09/11 00:47:17;;;;;;;3.65;3.45;;;;;;;;;;5035250;28;20052;-28
2023/09/11 00:49:43;;;;;;;5.68;5.35;;;;;;;;;;5034357;28;20037;-28
2023/09/11 00:52:09;;;;;;;3.47;3.28;;;;;;;;;;5034616;28;20025;-27
2023/09/11 00:54:35;;;;;;;4.13;3.92;;;;;;;;;;5034950;28;20445;-28
2023/09/11 00:57:02;;;;;;;4.50;4.30;;;;;;;;;;5034364;28;20039;-28
2023/09/11 00:59:28;;;;;;;5.50;5.20;;;;;;;;;;5038916;28;20100;-28
2023/09/11 01:01:54;;;;;;;3.95;3.75;;;;;;;;;;5038292;28;20033;-30
2023/09/11 01:04:21;;;;;;;4.78;4.47;;;;;;;;;;5038625;28;20029;-26
2023/09/11 01:06:47;;;;;;;4.80;4.50;;;;;;;;;;5038172;28;20086;-26
2023/09/11 01:09:13;;;;;;;3.88;3.67;;;;;;;;;;5038193;28;20039;-28
2023/09/11 01:11:39;;;;;;;3.83;3.63;;;;;;;;;;5038457;28;20026;-30
2023/09/11 01:14:05;;;;;;;3.63;3.42;;;;;;;;;;5038110;28;20021;-27
2023/09/11 01:16:55;;;;;;;4.75;4.55;;;;;;;;;;5038167;28;20018;-28
2023/09/11 01:19:30;;;;;;;4.35;4.15;;;;;;;;;;5028295;28;20034;-26
2023/09/11 01:22:04;;;;;;;3.90;3.70;;;;;;;;;;5037967;28;20049;-27
2023/09/11 01:24:43;;;;;;;4.22;4.03;;;;;;;;;;5038001;28;20029;-26
2023/09/11 01:27:12;;;;;;;4.00;3.80;;;;;;;;;;5037963;28;20026;-29
2023/09/11 01:29:42;;;;;;;4.40;4.18;;;;;;;;;;5037834;28;20097;-29
2023/09/11 01:32:08;;;;;;;3.92;3.72;;;;;;;;;;5038530;28;20455;-30
2023/09/11 01:34:34;;;;;;;3.92;3.72;;;;;;;;;;5037796;28;20041;-28
2023/09/11 01:37:01;;;;;;;3.60;3.40;;;;;;;;;;5037808;28;20021;-27
2023/09/11 01:39:27;;;;;;;3.55;3.35;;;;;;;;;;5037755;28;20112;-27
2023/09/11 01:41:54;;;;;;;4.80;4.55;;;;;;;;;;5037564;28;20101;-27
2023/09/11 01:44:22;;;;;;;4.13;3.92;;;;;;;;;;5037684;28;20029;-27
2023/09/11 01:46:49;;;;;;;4.57;4.28;;;;;;;;;;5037482;28;20025;-28
2023/09/11 01:49:17;;;;;;;4.07;3.80;;;;;;;;;;5037734;28;20029;-30
2023/09/11 01:51:43;;;;;;;4.20;4.00;;;;;;;;;;5037984;28;20428;-29
2023/09/11 01:54:10;;;;;;;3.88;3.67;;;;;;;;;;5037383;28;20416;-28
2023/09/11 01:56:36;;;;;;;4.30;4.10;;;;;;;;;;5037406;28;20017;-29
2023/09/11 01:59:02;;;;;;;5.05;4.78;;;;;;;;;;5037832;28;20043;-27
2023/09/11 02:01:28;;;;;;;3.97;3.78;;;;;;;;;;5037551;28;20104;-28
2023/09/11 02:03:54;;;;;;;4.22;4.03;;;;;;;;;;5037242;28;20025;-28
2023/09/11 02:06:21;;;;;;;4.22;4.03;;;;;;;;;;5037081;28;20110;-27
2023/09/11 02:08:47;;;;;;;4.85;4.55;;;;;;;;;;5037406;28;20502;-26
2023/09/11 02:11:13;;;;;;;3.90;3.70;;;;;;;;;;5037116;28;20444;-28
2023/09/11 02:13:39;;;;;;;5.13;4.80;;;;;;;;;;5036991;28;20033;-27
2023/09/11 02:16:05;;;;;;;4.45;4.15;;;;;;;;;;5037331;28;20029;-29
2023/09/11 02:18:31;;;;;;;4.93;4.63;;;;;;;;;;5037235;28;20025;-27
2023/09/11 02:20:57;;;;;;;3.90;3.70;;;;;;;;;;5036906;28;20040;-25
2023/09/11 02:23:24;;;;;;;3.38;3.20;;;;;;;;;;5036858;28;20427;-27
2023/09/11 02:25:51;;;;;;;3.58;3.38;;;;;;;;;;5037115;28;20360;-27
2023/09/11 02:28:17;;;;;;;4.40;4.10;;;;;;;;;;5036836;28;20036;-27
2023/09/11 02:30:43;;;;;;;4.35;4.15;;;;;;;;;;5036707;28;20063;-28
2023/09/11 02:33:09;;;;;;;4.45;4.25;;;;;;;;;;5036584;28;20017;-26
2023/09/11 02:35:35;;;;;;;4.10;3.90;;;;;;;;;;5036913;28;20017;-29
2023/09/11 02:38:01;;;;;;;3.22;3.03;;;;;;;;;;5036877;28;20105;-28
2023/09/11 02:40:27;;;;;;;4.22;4.03;;;;;;;;;;5037161;28;20390;-27
2023/09/11 02:42:53;;;;;;;4.65;4.45;;;;;;;;;;5036488;28;20033;-26
2023/09/11 02:45:19;;;;;;;3.92;3.72;;;;;;;;;;5036502;28;20411;-26
2023/09/11 02:47:46;;;;;;;3.83;3.63;;;;;;;;;;5036438;28;20037;-29
2023/09/11 02:50:12;;;;;;;4.95;4.72;;;;;;;;;;5036287;28;20029;-29
2023/09/11 02:52:38;;;;;;;4.15;3.95;;;;;;;;;;5036629;28;20039;-29
2023/09/11 02:55:04;;;;;;;4.43;4.22;;;;;;;;;;5036326;28;20018;-28
2023/09/11 02:57:30;;;;;;;4.57;4.38;;;;;;;;;;5036257;28;20506;-30
2023/09/11 02:59:56;;;;;;;4.50;4.30;;;;;;;;;;5036171;28;20025;-28
2023/09/11 03:02:22;;;;;;;4.22;4.03;;;;;;;;;;5036333;28;20116;-27
2023/09/11 03:04:52;;;;;;;4.10;3.90;;;;;;;;;;5036116;28;20029;-28
2023/09/11 03:07:18;;;;;;;4.13;3.92;;;;;;;;;;5036102;28;20041;-28
2023/09/11 03:09:47;;;;;;;3.90;3.70;;;;;;;;;;5035914;28;20025;-27
2023/09/11 03:12:13;;;;;;;4.30;4.00;;;;;;;;;;5036188;28;20021;-28
2023/09/11 03:14:40;;;;;;;4.35;4.15;;;;;;;;;;5018489;28;20466;-30
2023/09/11 03:17:06;;;;;;;4.78;4.47;;;;;;;;;;5036618;28;20061;-29
2023/09/11 03:19:35;;;;;;;4.90;4.68;;;;;;;;;;5035845;28;20048;-28
2023/09/11 03:22:02;;;;;;;5.00;4.70;;;;;;;;;;5035223;28;20116;-28
2023/09/11 03:24:28;;;;;;;4.63;4.38;;;;;;;;;;5035696;28;20163;-30
2023/09/11 03:26:54;;;;;;;4.60;4.32;;;;;;;;;;5035707;28;20041;-28
2023/09/11 03:29:20;;;;;;;3.63;3.42;;;;;;;;;;5035604;28;20075;-28
2023/09/11 03:31:47;;;;;;;4.28;4.07;;;;;;;;;;5035514;28;20021;-29
2023/09/11 03:34:13;;;;;;;3.70;3.50;;;;;;;;;;5035586;28;20039;-27
2023/09/11 03:36:39;;;;;;;3.95;3.75;;;;;;;;;;5035745;28;20055;-29
2023/09/11 03:39:06;;;;;;;4.70;4.40;;;;;;;;;;5035708;28;20033;-27
2023/09/11 03:41:32;;;;;;;4.00;3.80;;;;;;;;;;5035641;28;20510;-27
2023/09/11 03:43:58;;;;;;;3.45;3.25;;;;;;;;;;5035246;28;20038;-27
2023/09/11 03:46:25;;;;;;;4.10;3.90;;;;;;;;;;5035347;28;20104;-28
2023/09/11 03:48:51;;;;;;;4.50;4.22;;;;;;;;;;5035183;28;20045;-25
2023/09/11 03:51:17;;;;;;;3.60;3.40;;;;;;;;;;5035485;28;20025;-28
2023/09/11 03:53:43;;;;;;;3.55;3.38;;;;;;;;;;5035102;28;20057;-28
2023/09/11 03:56:13;;;;;;;3.55;3.35;;;;;;;;;;5035224;28;20026;-30
2023/09/11 03:58:40;;;;;;;3.85;3.65;;;;;;;;;;5035086;28;20513;-27
2023/09/11 04:01:06;;;;;;;4.00;3.80;;;;;;;;;;5035060;28;20072;-27
2023/09/11 04:03:32;;;;;;;4.45;4.20;;;;;;;;;;5034806;28;20025;-27
2023/09/11 04:05:58;;;;;;;3.72;3.53;;;;;;;;;;5034720;28;20060;-30
2023/09/11 04:08:24;;;;;;;4.63;4.40;;;;;;;;;;5034811;28;20461;-28
2023/09/11 04:10:50;;;;;;;4.28;4.03;;;;;;;;;;5034991;28;20029;-28
2023/09/11 04:13:18;;;;;;;3.67;3.47;;;;;;;;;;5034472;28;20072;-28
2023/09/11 04:15:44;;;;;;;4.30;4.10;;;;;;;;;;5034649;28;20056;-31
2023/09/11 04:18:10;;;;;;;4.00;3.80;;;;;;;;;;5034626;28;20342;-27
2023/09/11 04:20:36;;;;;;;4.88;4.55;;;;;;;;;;5034769;28;20025;-29
2023/09/11 04:23:05;;;;;;;3.88;3.25;;;;;;;;;;5034355;28;20029;-26
2023/09/11 04:25:33;;;;;;;4.40;3.15;;;;;;;;;;5034441;28;20026;-31
2023/09/11 04:27:59;;;;;;;3.83;3.63;;;;;;;;;;5034660;28;20030;-29
2023/09/11 04:30:25;;;;;;;4.30;4.07;;;;;;;;;;5034524;28;20037;-29
2023/09/11 04:32:51;;;;;;;4.30;4.00;;;;;;;;;;5034770;28;20030;-28
2023/09/11 04:35:18;;;;;;;4.80;4.57;;;;;;;;;;5034580;28;20021;-29
2023/09/11 04:37:45;;;;;;;4.40;3.88;;;;;;;;;;5034360;28;20063;-29
2023/09/11 04:40:11;;;;;;;4.30;3.90;;;;;;;;;;5034561;28;20052;-30
2023/09/11 04:42:38;;;;;;;4.10;3.80;;;;;;;;;;5034522;28;20384;-29
2023/09/11 04:45:04;;;;;;;4.10;3.70;;;;;;;;;;5034558;28;20045;-28
2023/09/11 04:47:31;;;;;;;3.83;3.63;;;;;;;;;;5034559;28;20444;-29
2023/09/11 04:49:58;;;;;;;4.13;3.83;;;;;;;;;;5034055;28;20091;-28
2023/09/11 04:52:24;;;;;;;3.42;3.22;;;;;;;;;;5034238;28;20515;-27
2023/09/11 04:54:50;;;;;;;4.63;4.22;;;;;;;;;;5034344;28;20029;-27
2023/09/11 04:57:16;;;;;;;3.65;3.45;;;;;;;;;;5034403;28;20025;-28
2023/09/11 04:59:43;;;;;;;3.53;3.33;;;;;;;;;;5034065;28;20033;-28
2023/09/11 05:02:09;;;;;;;4.28;3.75;;;;;;;;;;5034085;28;20074;-28
2023/09/11 05:04:35;;;;;;;3.55;3.35;;;;;;;;;;5033942;28;20025;-28
2023/09/11 05:07:02;;;;;;;4.15;3.75;;;;;;;;;;5033688;28;20079;-29
2023/09/11 05:09:28;;;;;;;4.10;3.55;;;;;;;;;;5034214;28;20034;-28
2023/09/11 05:11:55;;;;;;;3.38;3.17;;;;;;;;;;5033873;28;20032;-29
2023/09/11 05:14:21;;;;;;;3.90;3.70;;;;;;;;;;5034188;28;20020;-30
2023/09/11 05:16:47;;;;;;;3.17;2.90;;;;;;;;;;5034185;28;20071;-28
2023/09/11 05:19:13;;;;;;;6.82;3.88;;;;;;;;;;5034664;28;20033;-28
2023/09/11 05:21:39;;;;;;;4.82;3.25;;;;;;;;;;5034083;28;20467;-27
2023/09/11 05:24:05;;;;;;;4.72;3.45;;;;;;;;;;5034625;28;20025;-29
2023/09/11 05:26:32;;;;;;;6.22;4.07;;;;;;;;;;5033845;28;20056;-30
2023/09/11 05:28:58;;;;;;;4.90;3.35;;;;;;;;;;5034039;28;20402;-32
2023/09/11 05:31:24;;;;;;;7.78;3.78;;;;;;;;;;5033952;28;20025;-29
2023/09/11 05:33:50;;;;;;;4.95;3.85;;;;;;;;;;5033789;28;20025;-33
2023/09/11 05:36:16;;;;;;;7.82;3.63;;;;;;;;;;5033833;28;20030;-28
2023/09/11 05:38:43;;;;;;;10.93;4.03;;;;;;;;;;5033948;28;20095;-29
2023/09/11 05:41:09;;;;;;;7.95;4.10;;;;;;;;;;5034092;28;20452;-29
2023/09/11 05:43:36;;;;;;;4.88;3.45;;;;;;;;;;5034358;28;20029;-27
2023/09/11 05:46:02;;;;;;;4.78;4.38;;;;;;;;;;5037239;28;20030;-27
2023/09/11 05:48:28;;;;;;;13.70;3.92;;;;;;;;;;5037401;28;20352;-26
2023/09/11 05:50:54;;;;;;;4.13;3.72;;;;;;;;;;5037256;28;20345;-29
2023/09/11 05:53:20;;;;;;;5.95;3.65;;;;;;;;;;5037258;28;20068;-30
2023/09/11 05:55:47;;;;;;;6.50;3.53;;;;;;;;;;5037398;28;20372;-29
2023/09/11 05:58:13;;;;;;;4.80;3.42;;;;;;;;;;5036964;28;20071;-30
2023/09/11 06:03:16;;;;;;;3.33;2.95;;;;;;;;;;5383998;22;20453;-29
2023/09/11 06:05:43;;;;;;;4.32;3.35;;;;;;;;;;4997356;28;20022;-28
2023/09/11 06:08:09;;;;;;;9.07;4.40;;;;;;;;;;4997254;28;20195;-27
2023/09/11 06:10:35;;;;;;;4.18;3.88;;;;;;;;;;4997570;28;20403;-27
2023/09/11 06:13:01;;;;;;;3.97;3.78;;;;;;;;;;4997256;28;20034;-25
2023/09/11 06:15:29;;;;;;;5.50;3.00;;;;;;;;;;4980270;28;20046;-26
2023/09/11 06:17:55;;;;;;;3.40;3.17;;;;;;;;;;4997256;28;20023;-26
2023/09/11 06:20:21;;;;;;;4.20;3.50;;;;;;;;;;4997240;28;20034;-26
2023/09/11 06:22:51;;;;;;;3.40;3.20;;;;;;;;;;4979955;28;20030;-25
2023/09/11 06:25:17;;;;;;;7.68;3.42;;;;;;;;;;4997069;28;20038;-24
2023/09/11 06:27:43;;;;;;;3.38;3.08;;;;;;;;;;4997049;28;20026;-27
2023/09/11 06:30:09;;;;;;;3.40;3.20;;;;;;;;;;4979831;28;20446;-28
2023/09/11 06:32:36;;;;;;;6.95;4.00;;;;;;;;;;4996888;28;20099;-26
2023/09/11 06:35:04;;;;;;;10.18;4.75;;;;;;;;;;4979819;28;20026;-26
2023/09/11 06:37:30;;;;;;;4.03;3.65;;;;;;;;;;4996920;28;20353;-23
2023/09/11 06:39:56;;;;;;;4.30;3.30;;;;;;;;;;4996851;28;20516;-25
2023/09/11 06:42:24;;;;;;;3.97;3.70;;;;;;;;;;4997326;28;20026;-23
2023/09/11 06:44:53;;;;;;;3.70;3.50;;;;;;;;;;4979799;28;20081;-28
2023/09/11 06:47:20;;;;;;;4.00;3.53;;;;;;;;;;4996978;28;20054;-26
2023/09/11 06:49:46;;;;;;;4.88;4.38;;;;;;;;;;4996774;28;20437;-27
2023/09/11 06:52:12;;;;;;;4.38;3.70;;;;;;;;;;4996857;28;20050;-24
2023/09/11 06:54:38;;;;;;;4.20;3.60;;;;;;;;;;4996524;28;20092;-24
2023/09/11 06:57:06;;;;;;;12.00;3.70;;;;;;;;;;4996143;28;20023;-24
2023/09/11 06:59:32;;;;;;;4.45;3.58;;;;;;;;;;4979408;28;20034;-27
2023/09/11 07:01:58;;;;;;;4.10;3.70;;;;;;;;;;4997128;28;20628;-27
2023/09/11 07:04:24;;;;;;;6.93;3.60;;;;;;;;;;4979495;28;20042;-23
2023/09/11 07:06:51;;;;;;;3.70;3.35;;;;;;;;;;4996798;28;20385;-24
2023/09/11 07:09:17;;;;;;;11.23;4.10;;;;;;;;;;4996350;28;20026;-24
2023/09/11 07:11:43;;;;;;;5.45;3.53;;;;;;;;;;4996519;28;20357;-26
2023/09/11 07:14:12;;;;;;;5.28;4.78;;;;;;;;;;4996366;28;20029;-27
2023/09/11 07:16:39;;;;;;;5.38;3.85;;;;;;;;;;4996530;28;20433;-25
2023/09/11 07:19:05;;;;;;;4.60;3.03;;;;;;;;;;4979067;28;20361;-25
2023/09/11 07:21:31;;;;;;;5.57;3.58;;;;;;;;;;4996150;28;20077;-23
2023/09/11 07:23:57;;;;;;;3.97;3.42;;;;;;;;;;4996391;28;20158;-27
2023/09/11 07:26:24;;;;;;;10.15;3.83;;;;;;;;;;4996023;28;20018;-26
2023/09/11 07:28:55;;;;;;;12.02;3.80;;;;;;;;;;4995769;28;20483;-25
2023/09/11 07:31:21;;;;;;;7.30;3.17;;;;;;;;;;4979064;28;20022;-27
2023/09/11 07:33:47;;;;;;;7.90;3.45;;;;;;;;;;4996238;28;20026;-25
2023/09/11 07:36:14;;;;;;;9.30;4.25;;;;;;;;;;4995936;28;20027;-25
2023/09/11 07:38:44;;;;;;;9.77;3.80;;;;;;;;;;4995758;28;20022;-24
2023/09/11 07:41:11;;;;;;;3.85;3.55;;;;;;;;;;4996203;28;20109;-27
2023/09/11 07:43:37;;;;;;;6.13;3.65;;;;;;;;;;4978403;28;20034;-25
2023/09/11 07:46:03;;;;;;;4.40;3.80;;;;;;;;;;4995580;28;20097;-27
2023/09/11 07:48:30;;;;;;;8.80;4.20;;;;;;;;;;4995495;28;20373;-24
2023/09/11 07:50:59;;;;;;;3.80;3.60;;;;;;;;;;4978284;28;20476;-26
2023/09/11 07:53:25;;;;;;;9.73;4.32;;;;;;;;;;4978433;28;20548;-25
2023/09/11 07:55:51;;;;;;;7.40;3.85;;;;;;;;;;4978381;28;20030;-29
2023/09/11 07:58:17;;;;;;;19.02;4.50;;;;;;;;;;4995749;28;20112;-26
2023/09/11 08:00:43;;;;;;;10.52;3.38;;;;;;;;;;4995154;28;20038;-27
2023/09/11 08:03:09;;;;;;;7.88;3.70;;;;;;;;;;4995468;28;20112;-27
2023/09/11 08:05:35;;;;;;;11.70;4.05;;;;;;;;;;4995774;28;20077;-26
2023/09/11 08:08:02;;;;;;;25.10;4.20;;;;;;;;;;4995466;28;20106;-24
2023/09/11 08:10:29;;;;;;;11.93;3.78;;;;;;;;;;4995153;28;20128;-25
2023/09/11 08:12:55;;;;;;;12.90;5.75;;;;;;;;;;4995255;28;20026;-25
2023/09/11 08:15:21;;;;;;;7.05;4.32;;;;;;;;;;4995538;28;20026;-25
2023/09/11 08:17:47;;;;;;;13.32;4.50;;;;;;;;;;4978047;28;20089;-25
2023/09/11 08:20:17;;;;;;;9.82;4.32;;;;;;;;;;4995020;28;20106;-28
2023/09/11 08:22:43;;;;;;;7.93;4.05;;;;;;;;;;4995178;28;20101;-25
2023/09/11 08:25:11;;;;;;;7.50;4.70;;;;;;;;;;4995181;28;20030;-24
2023/09/11 08:27:37;;;;;;;17.52;4.90;;;;;;;;;;4995521;28;20022;-26
2023/09/11 08:30:03;;;;;;;14.75;4.50;;;;;;;;;;4995127;28;20037;-22
2023/09/11 08:32:29;;;;;;;11.50;3.92;;;;;;;;;;4995009;28;20081;-24
2023/09/11 08:34:56;;;;;;;11.13;5.35;;;;;;;;;;4995414;28;20113;-24
2023/09/11 08:37:25;;;;;;;12.35;5.28;;;;;;;;;;4994823;28;20034;-25
2023/09/11 08:39:51;;;;;;;13.95;4.55;;;;;;;;;;4994935;28;20040;-28
2023/09/11 08:42:18;;;;;;;6.35;4.35;;;;;;;;;;4977564;28;20118;-27
2023/09/11 08:44:44;;;;;;;9.68;4.50;;;;;;;;;;4995018;28;20031;-26
2023/09/11 08:47:12;;;;;;;7.10;4.00;;;;;;;;;;4995053;28;20022;-25
2023/09/11 08:49:43;;;;;;;11.18;5.00;;;;;;;;;;4994551;28;20041;-27
2023/09/11 08:52:12;;;;;;;11.30;4.93;;;;;;;;;;4994612;28;20030;-25
2023/09/11 08:54:40;;;;;;;14.82;4.85;;;;;;;;;;4977952;28;20378;-28
2023/09/11 08:57:07;;;;;;;16.85;4.35;;;;;;;;;;4994800;28;20027;-26
2023/09/11 08:59:35;;;;;;;8.52;3.88;;;;;;;;;;4994554;28;20357;-27
2023/09/11 09:02:02;;;;;;;7.90;4.65;;;;;;;;;;4977177;28;20073;-23
2023/09/11 09:04:28;;;;;;;9.40;4.88;;;;;;;;;;4994549;28;20030;-24
2023/09/11 09:06:54;;;;;;;7.22;4.55;;;;;;;;;;4977327;28;20369;-24
2023/09/11 09:09:22;;;;;;;8.00;4.75;;;;;;;;;;4977305;28;20461;-26
2023/09/11 09:11:48;;;;;;;13.85;4.88;;;;;;;;;;4977082;28;20026;-26
2023/09/11 09:14:21;;;;;;;8.45;4.65;;;;;;;;;;4994731;28;20109;-23
2023/09/11 09:16:47;;;;;;;5.57;4.95;;;;;;;;;;4978053;28;20027;-24
2023/09/11 09:19:13;;;;;;;7.88;4.80;;;;;;;;;;4996132;28;20037;-25
2023/09/11 09:21:58;;;;;;;6.47;4.88;;;;;;;;;;4998211;28;20026;-25
2023/09/11 09:24:24;;;;;;;8.50;4.80;;;;;;;;;;4998234;28;20030;-25
2023/09/11 09:26:57;;;;;;;6.65;5.05;;;;;;;;;;4998167;28;20035;-25
2023/09/11 09:29:24;;;;;;;17.65;4.82;;;;;;;;;;4998283;28;20113;-26
2023/09/11 09:31:50;;;;;;;7.80;5.00;;;;;;;;;;4980839;28;20030;-28
2023/09/11 09:34:17;;;;;;;7.18;4.97;;;;;;;;;;4998115;28;20101;-27
2023/09/11 09:36:53;;;;;;;13.45;5.40;;;;;;;;;;4980720;28;20018;-25
2023/09/11 09:39:19;;;;;;;6.38;4.72;;;;;;;;;;4998435;28;20030;-22
2023/09/11 09:41:55;;;;;;;15.15;5.30;;;;;;;;;;4998290;28;20105;-23
2023/09/11 09:44:28;;;;;;;6.65;4.70;;;;;;;;;;4998678;28;20042;-25
2023/09/11 09:46:55;;;;;;;12.75;4.68;;;;;;;;;;4981525;28;20026;-24
2023/09/11 09:49:24;;;;;;;7.75;5.30;;;;;;;;;;4997963;28;20050;-25
2023/09/11 09:51:52;;;;;;;11.02;4.90;;;;;;;;;;4997698;28;20019;-25
2023/09/11 09:54:18;;;;;;;10.40;5.68;;;;;;;;;;4997711;28;20042;-27
2023/09/11 09:56:47;;;;;;;12.80;5.28;;;;;;;;;;4998000;28;20453;-25
2023/09/11 09:59:23;;;;;;;6.70;5.03;;;;;;;;;;4998009;28;20053;-24
2023/09/11 10:01:50;;;;;;;13.93;6.40;;;;;;;;;;4997627;28;20058;-25
2023/09/11 10:04:16;;;;;;;11.57;5.70;;;;;;;;;;4997442;28;20046;-24
2023/09/11 10:06:42;;;;;;;5.50;4.97;;;;;;;;;;4997816;28;20085;-25
2023/09/11 10:09:13;;;;;;;7.00;5.18;;;;;;;;;;4997430;28;20084;-26
2023/09/11 10:11:40;;;;;;;6.03;5.03;;;;;;;;;;4997479;28;20027;-28
2023/09/11 10:14:07;;;;;;;9.13;5.72;;;;;;;;;;4997216;28;20119;-26
2023/09/11 10:16:33;;;;;;;11.13;5.57;;;;;;;;;;4997345;28;20026;-26
2023/09/11 10:19:00;;;;;;;12.88;5.03;;;;;;;;;;4980572;28;20026;-27
2023/09/11 10:21:27;;;;;;;6.18;5.38;;;;;;;;;;4998121;28;20117;-28
2023/09/11 10:23:53;;;;;;;12.30;4.60;;;;;;;;;;4997276;28;20026;-27
2023/09/11 10:26:26;;;;;;;10.40;5.00;;;;;;;;;;4980100;28;20026;-23
2023/09/11 10:29:03;;;;;;;10.45;4.53;;;;;;;;;;4997230;28;20060;-26
2023/09/11 10:31:33;;;;;;;6.97;5.40;;;;;;;;;;4997128;28;20472;-24
2023/09/11 10:34:02;;;;;;;8.68;5.28;;;;;;;;;;4980082;28;20080;-26
2023/09/11 10:36:32;;;;;;;12.63;4.80;;;;;;;;;;4979824;28;20380;-23
2023/09/11 10:39:00;;;;;;;8.73;5.53;;;;;;;;;;4997102;28;20022;-29
2023/09/11 10:41:27;;;;;;;15.07;5.70;;;;;;;;;;4996950;28;20027;-25
2023/09/11 10:43:53;;;;;;;9.77;5.60;;;;;;;;;;4997134;28;20408;-25
2023/09/11 10:46:22;;;;;;;16.30;5.40;;;;;;;;;;4979847;28;20484;-24
2023/09/11 10:48:49;;;;;;;10.23;4.97;;;;;;;;;;4996936;28;20105;-28
2023/09/11 10:51:16;;;;;;;5.88;5.28;;;;;;;;;;4996802;28;20108;-25
2023/09/11 10:53:43;;;;;;;15.65;5.32;;;;;;;;;;4996743;28;20026;-25
2023/09/11 10:56:10;;;;;;;11.82;5.85;;;;;;;;;;4997023;28;20114;-28
2023/09/11 10:58:37;;;;;;;8.48;4.82;;;;;;;;;;4996912;28;20081;-24
2023/09/11 11:01:04;;;;;;;8.48;6.13;;;;;;;;;;4979537;28;20026;-27
2023/09/11 11:03:31;;;;;;;7.88;6.05;;;;;;;;;;4996523;28;20042;-24
2023/09/11 11:06:08;;;;;;;6.35;5.85;;;;;;;;;;4997213;28;20031;-23
2023/09/11 11:08:34;;;;;;;7.15;5.68;;;;;;;;;;4980421;28;20370;-28
2023/09/11 11:11:01;;;;;;;6.60;6.03;;;;;;;;;;4996466;28;20026;-28
2023/09/11 11:13:27;;;;;;;6.53;6.03;;;;;;;;;;4979270;28;20073;-26
2023/09/11 11:16:23;;;;;;;5.82;5.32;;;;;;;;;;4996429;28;20082;-27
2023/09/11 11:18:52;;;;;;;6.80;6.20;;;;;;;;;;4970567;28;20038;-25
2023/09/11 11:21:18;;;;;;;10.02;5.97;;;;;;;;;;4996644;28;20034;-35
2023/09/11 11:24:00;;;;;;;10.48;6.22;;;;;;;;;;4996125;28;20026;-24
2023/09/11 11:26:27;;;;;;;11.00;5.63;;;;;;;;;;4996389;28;20030;-24
2023/09/11 11:28:53;;;;;;;11.85;6.35;;;;;;;;;;4996013;28;20084;-24
2023/09/11 11:31:21;;;;;;;5.70;4.70;;;;;;;;;;4996093;28;20158;-24
2023/09/11 11:33:47;;;;;;;7.05;6.30;;;;;;;;;;4978775;28;20033;-25
2023/09/11 11:36:14;;;;;;;8.20;6.13;;;;;;;;;;4996013;28;20050;-24
2023/09/11 11:38:42;;;;;;;11.68;5.72;;;;;;;;;;4978797;28;20022;-23
2023/09/11 11:41:09;;;;;;;10.60;6.20;;;;;;;;;;4995632;28;20030;-27
2023/09/11 11:43:35;;;;;;;6.53;5.93;;;;;;;;;;4995768;28;20069;-29
2023/09/11 11:46:01;;;;;;;6.90;5.85;;;;;;;;;;4995947;28;20483;-25
2023/09/11 11:48:28;;;;;;;10.18;6.40;;;;;;;;;;4995870;28;20106;-25
2023/09/11 11:50:55;;;;;;;11.88;6.32;;;;;;;;;;4995772;28;20022;-26
2023/09/11 11:53:22;;;;;;;12.02;6.97;;;;;;;;;;4978633;28;20027;-24
2023/09/11 11:55:49;;;;;;;9.07;6.25;;;;;;;;;;4995741;28;20504;-23
2023/09/11 11:58:16;;;;;;;10.00;6.57;;;;;;;;;;4996082;28;20062;-25
2023/09/11 12:00:56;;;;;;;7.47;6.78;;;;;;;;;;4995904;28;20030;-27
2023/09/11 12:03:22;;;;;;;11.30;5.90;;;;;;;;;;4995565;28;20054;-25
2023/09/11 12:05:48;;;;;;;6.85;6.25;;;;;;;;;;4995619;28;20032;-24
2023/09/11 12:08:15;;;;;;;13.32;6.68;;;;;;;;;;4995657;28;20334;-25
2023/09/11 12:10:45;;;;;;;11.50;6.88;;;;;;;;;;4995661;28;20052;-32
2023/09/11 12:13:14;;;;;;;7.70;6.13;;;;;;;;;;4995287;28;20026;-24
2023/09/11 12:15:40;;;;;;;6.95;6.38;;;;;;;;;;4995410;28;20019;-25
2023/09/11 12:18:07;;;;;;;9.48;5.85;;;;;;;;;;4995874;28;20064;-25
2023/09/11 12:20:33;;;;;;;9.80;5.85;;;;;;;;;;4978258;28;20095;-26
2023/09/11 12:23:02;;;;;;;6.63;6.05;;;;;;;;;;4995299;28;20351;-25
2023/09/11 12:25:28;;;;;;;7.18;6.47;;;;;;;;;;4995269;28;20054;-26
2023/09/11 12:27:55;;;;;;;9.32;5.95;;;;;;;;;;4995593;28;20027;-25
2023/09/11 12:30:21;;;;;;;11.55;7.05;;;;;;;;;;4995187;28;20037;-25
2023/09/11 12:32:49;;;;;;;7.75;5.80;;;;;;;;;;4978079;28;20035;-28
2023/09/11 12:35:15;;;;;;;12.38;5.93;;;;;;;;;;4995146;28;20458;-26
2023/09/11 12:37:41;;;;;;;8.25;6.40;;;;;;;;;;4995412;28;20481;-24
2023/09/11 12:40:11;;;;;;;7.22;6.57;;;;;;;;;;4995207;28;20401;-23
2023/09/11 12:42:38;;;;;;;9.77;7.03;;;;;;;;;;4995630;28;20137;-28
2023/09/11 12:45:04;;;;;;;12.55;6.00;;;;;;;;;;4995079;28;20030;-25
2023/09/11 12:47:31;;;;;;;9.02;6.43;;;;;;;;;;4995230;28;20073;-24
2023/09/11 12:49:58;;;;;;;10.45;6.45;;;;;;;;;;4994918;28;20026;-25
2023/09/11 12:52:24;;;;;;;12.60;6.68;;;;;;;;;;4977683;28;20026;-26
2023/09/11 12:54:50;;;;;;;7.30;6.70;;;;;;;;;;4980717;28;20030;-26
2023/09/11 12:57:18;;;;;;;7.80;7.05;;;;;;;;;;4981825;28;20056;-25
2023/09/11 12:59:44;;;;;;;12.55;6.15;;;;;;;;;;4998963;28;20018;-26
2023/09/11 13:02:13;;;;;;;9.00;7.07;;;;;;;;;;4998908;28;20104;-28
2023/09/11 13:04:42;;;;;;;9.52;6.65;;;;;;;;;;4998925;28;20045;-25
2023/09/11 13:07:08;;;;;;;14.40;6.95;;;;;;;;;;4999182;28;20069;-28
2023/09/11 13:09:36;;;;;;;11.20;6.05;;;;;;;;;;4999024;28;20033;-28
2023/09/11 13:12:03;;;;;;;6.57;6.05;;;;;;;;;;4998630;28;20425;-24
2023/09/11 13:14:29;;;;;;;11.38;6.72;;;;;;;;;;4998712;28;20102;-25
2023/09/11 13:16:56;;;;;;;11.80;6.78;;;;;;;;;;4998795;28;20334;-25
2023/09/11 13:19:23;;;;;;;15.55;6.53;;;;;;;;;;4998649;28;20031;-26
2023/09/11 13:21:50;;;;;;;6.80;6.00;;;;;;;;;;4998772;28;20474;-25
2023/09/11 13:24:16;;;;;;;6.85;6.18;;;;;;;;;;4981463;28;20031;-23
2023/09/11 13:26:42;;;;;;;9.70;6.78;;;;;;;;;;4981611;28;20334;-23
2023/09/11 13:29:09;;;;;;;6.43;5.82;;;;;;;;;;4981251;28;20027;-27
2023/09/11 13:31:36;;;;;;;12.98;6.50;;;;;;;;;;4981259;28;20088;-25
2023/09/11 13:34:02;;;;;;;13.27;6.72;;;;;;;;;;4998615;28;20361;-27
2023/09/11 13:36:28;;;;;;;7.03;6.43;;;;;;;;;;4998712;28;20034;-27
2023/09/11 13:38:54;;;;;;;12.80;6.97;;;;;;;;;;4998295;28;20018;-28
2023/09/11 13:41:20;;;;;;;6.60;6.00;;;;;;;;;;4998364;28;20033;-26
2023/09/11 13:43:46;;;;;;;9.18;6.03;;;;;;;;;;4998200;28;20445;-25
2023/09/11 13:46:13;;;;;;;8.20;5.97;;;;;;;;;;4981501;28;20053;-26
2023/09/11 13:48:39;;;;;;;10.40;6.97;;;;;;;;;;4998194;28;20034;-25
2023/09/11 13:51:05;;;;;;;7.35;6.22;;;;;;;;;;4981142;28;20031;-23
2023/09/11 13:53:31;;;;;;;18.88;6.68;;;;;;;;;;4997945;28;20459;-25
2023/09/11 13:55:57;;;;;;;11.63;6.70;;;;;;;;;;4998015;28;20437;-25
2023/09/11 13:58:23;;;;;;;8.75;6.20;;;;;;;;;;4997934;28;20022;-27
2023/09/11 14:00:49;;;;;;;9.43;6.30;;;;;;;;;;4997953;28;20030;-27
2023/09/11 14:03:15;;;;;;;10.52;6.85;;;;;;;;;;4980365;28;20064;-27
2023/09/11 14:05:42;;;;;;;15.57;5.60;;;;;;;;;;4980182;28;20045;-27
2023/09/11 14:08:09;;;;;;;12.25;6.80;;;;;;;;;;4997763;28;20022;-27
2023/09/11 14:10:35;;;;;;;9.00;6.88;;;;;;;;;;4997863;28;20464;-28
2023/09/11 14:13:01;;;;;;;12.38;7.18;;;;;;;;;;4980816;28;20480;-25
2023/09/11 14:15:27;;;;;;;13.05;7.65;;;;;;;;;;4997744;28;20030;-25
2023/09/11 14:17:53;;;;;;;14.77;7.35;;;;;;;;;;4997862;28;20022;-25
2023/09/11 14:20:19;;;;;;;21.05;6.50;;;;;;;;;;4998078;28;20337;-24
2023/09/11 14:22:45;;;;;;;11.68;6.88;;;;;;;;;;4980330;28;20027;-25
2023/09/11 14:25:12;;;;;;;8.18;6.38;;;;;;;;;;4997525;28;20377;-25
2023/09/11 14:27:38;;;;;;;7.93;7.20;;;;;;;;;;4997426;28;20038;-27
2023/09/11 14:30:04;;;;;;;10.50;7.05;;;;;;;;;;4997335;28;20062;-25
2023/09/11 14:32:30;;;;;;;7.72;6.45;;;;;;;;;;4980104;28;20504;-28
2023/09/11 14:34:56;;;;;;;15.50;7.25;;;;;;;;;;4997308;28;20022;-26
2023/09/11 14:37:22;;;;;;;15.20;6.80;;;;;;;;;;4980157;28;20113;-27
2023/09/11 14:39:48;;;;;;;9.70;6.20;;;;;;;;;;4997462;28;20026;-27
2023/09/11 14:42:15;;;;;;;7.80;6.40;;;;;;;;;;4979976;28;20089;-27